createdAt,value
2018-02-25T00:01:56.930Z,15.17
2018-02-25T00:04:24.800Z,15.07
2018-02-25T00:06:52.645Z,14.80
2018-02-25T00:09:20.533Z,14.10
2018-02-25T00:11:48.483Z,15.73
2018-02-25T00:14:16.238Z,14.57
2018-02-25T00:16:44.210Z,15.60
2018-02-25T00:19:13.021Z,15.23
2018-02-25T00:21:40.986Z,14.70
2018-02-25T00:24:09.040Z,14.83
2018-02-25T00:26:37.351Z,14.37
2018-02-25T00:29:05.206Z,15.80
2018-02-25T00:31:33.154Z,15.13
2018-02-25T00:34:01.123Z,14.60
2018-02-25T00:36:29.006Z,14.70
2018-02-25T00:38:57.264Z,14.40
2018-02-25T00:41:25.257Z,14.57
2018-02-25T00:43:53.121Z,14.93
2018-02-25T00:46:20.992Z,14.70
2018-02-25T00:48:49.042Z,14.13
2018-02-25T00:51:17.332Z,14.97
2018-02-25T00:53:45.277Z,14.90
2018-02-25T00:56:13.247Z,15.50
2018-02-25T00:58:41.120Z,15.77
2018-02-25T01:01:09.021Z,13.60
2018-02-25T01:03:37.794Z,15.47
2018-02-25T01:06:06.555Z,14.43
2018-02-25T01:08:34.455Z,14.67
2018-02-25T01:11:02.627Z,15.67
2018-02-25T01:13:31.385Z,15.10
2018-02-25T01:15:59.493Z,14.57
2018-02-25T01:18:28.954Z,13.80
2018-02-25T01:20:57.030Z,14.53
2018-02-25T01:23:24.912Z,13.90
2018-02-25T01:25:53.785Z,13.47
2018-02-25T01:28:21.754Z,14.17
2018-02-25T01:30:49.620Z,12.97
2018-02-25T01:33:17.998Z,12.67
2018-02-25T01:35:46.000Z,12.50
2018-02-25T01:38:14.571Z,13.30
2018-02-25T01:40:42.442Z,12.63
2018-02-25T01:43:10.696Z,14.47
2018-02-25T01:45:38.464Z,12.43
2018-02-25T01:48:06.324Z,12.73
2018-02-25T01:50:45.831Z,11.60
2018-02-25T01:53:13.832Z,12.13
2018-02-25T01:55:41.801Z,12.20
2018-02-25T01:58:09.558Z,11.50
2018-02-25T02:00:38.036Z,13.33
2018-02-25T02:03:05.910Z,12.03
2018-02-25T02:05:33.774Z,12.63
2018-02-25T02:08:01.643Z,12.03
2018-02-25T02:10:29.760Z,11.77
2018-02-25T02:12:58.473Z,14.40
2018-02-25T02:15:26.228Z,12.60
2018-02-25T02:17:54.134Z,12.37
2018-02-25T02:20:22.024Z,12.07
2018-02-25T02:22:49.883Z,11.80
2018-02-25T02:25:17.749Z,11.43
2018-02-25T02:27:45.616Z,10.87
2018-02-25T02:30:13.443Z,12.23
2018-02-25T02:32:41.462Z,12.73
2018-02-25T02:35:09.326Z,11.23
2018-02-25T02:37:37.083Z,11.40
2018-02-25T02:40:04.951Z,10.80
2018-02-25T02:42:32.733Z,11.33
2018-02-25T02:45:01.485Z,11.63
2018-02-25T02:47:29.370Z,13.10
2018-02-25T02:49:57.235Z,10.67
2018-02-25T02:52:25.286Z,11.33
2018-02-25T02:54:53.102Z,10.83
2018-02-25T02:57:21.615Z,11.90
2018-02-25T02:59:49.604Z,10.77
2018-02-25T03:02:17.644Z,11.70
2018-02-25T03:04:45.499Z,12.50
2018-02-25T03:07:14.140Z,11.47
2018-02-25T03:09:42.192Z,10.60
2018-02-25T03:12:10.156Z,11.00
2018-02-25T03:14:38.025Z,11.50
2018-02-25T03:17:05.838Z,10.43
2018-02-25T03:19:34.090Z,10.90
2018-02-25T03:22:01.963Z,11.17
2018-02-25T03:24:30.014Z,10.80
2018-02-25T03:26:59.375Z,11.10
2018-02-25T03:29:27.392Z,11.33
2018-02-25T03:31:55.151Z,10.37
2018-02-25T03:34:23.128Z,11.57
2018-02-25T03:36:51.825Z,11.50
2018-02-25T03:39:19.991Z,11.20
2018-02-25T03:41:49.776Z,10.70
2018-02-25T03:44:17.749Z,11.37
2018-02-25T03:46:45.494Z,11.00
2018-02-25T03:49:13.401Z,10.83
2018-02-25T03:51:41.260Z,11.73
2018-02-25T03:54:09.179Z,10.70
2018-02-25T03:56:36.950Z,11.03
2018-02-25T03:59:04.841Z,10.23
2018-02-25T04:01:32.607Z,10.23
2018-02-25T04:04:00.498Z,11.80
2018-02-25T04:06:28.521Z,10.93
2018-02-25T04:08:56.937Z,11.23
2018-02-25T04:11:24.710Z,12.27
2018-02-25T04:13:54.400Z,12.40
2018-02-25T04:16:22.415Z,10.90
2018-02-25T04:18:51.170Z,10.70
2018-02-25T04:21:19.037Z,10.20
2018-02-25T04:23:46.792Z,11.10
2018-02-25T04:26:14.673Z,9.00
2018-02-25T04:28:42.558Z,10.70
2018-02-25T04:31:11.156Z,11.07
2018-02-25T04:33:40.153Z,9.83
2018-02-25T04:36:08.913Z,9.50
2018-02-25T04:38:37.663Z,10.17
2018-02-25T04:41:05.633Z,10.23
2018-02-25T04:43:34.018Z,9.60
2018-02-25T04:46:02.741Z,9.63
2018-02-25T04:48:31.712Z,10.40
2018-02-25T04:50:59.984Z,10.53
2018-02-25T04:53:28.138Z,10.17
2018-02-25T04:55:56.113Z,10.47
2018-02-25T04:58:24.083Z,9.80
2018-02-25T05:00:52.104Z,9.43
2018-02-25T05:03:20.446Z,9.70
2018-02-25T05:05:49.570Z,9.57
2018-02-25T05:08:18.120Z,10.83
2018-02-25T05:10:47.505Z,9.00
2018-02-25T05:13:16.745Z,10.60
2018-02-25T05:15:45.966Z,10.53
2018-02-25T05:18:15.072Z,10.07
2018-02-25T05:20:44.293Z,11.00
2018-02-25T05:23:13.492Z,10.43
2018-02-25T05:25:42.728Z,9.30
2018-02-25T05:28:11.923Z,11.07
2018-02-25T05:30:41.020Z,10.57
2018-02-25T05:33:10.213Z,10.17
2018-02-25T05:35:39.380Z,9.87
2018-02-25T05:38:08.571Z,10.30
2018-02-25T05:40:37.701Z,9.57
2018-02-25T05:43:06.966Z,9.90
2018-02-25T05:45:36.195Z,10.50
2018-02-25T05:48:05.285Z,10.57
2018-02-25T05:50:34.458Z,10.77
2018-02-25T05:53:03.554Z,10.57
2018-02-25T05:55:32.702Z,10.80
2018-02-25T05:58:01.933Z,10.40
2018-02-25T06:00:31.175Z,9.90
2018-02-25T06:03:00.400Z,10.40
2018-02-25T06:05:29.708Z,10.70
2018-02-25T06:07:59.045Z,11.33
2018-02-25T06:10:28.343Z,11.27
2018-02-25T06:12:57.744Z,10.50
2018-02-25T06:15:26.870Z,10.83
2018-02-25T06:17:57.067Z,11.13
2018-02-25T06:20:26.305Z,10.87
2018-02-25T06:22:55.704Z,10.50
2018-02-25T06:25:24.960Z,11.47
2018-02-25T06:27:55.939Z,10.17
2018-02-25T06:30:25.308Z,10.53
2018-02-25T06:32:54.601Z,11.00
2018-02-25T06:35:23.798Z,10.97
2018-02-25T06:37:53.439Z,9.63
2018-02-25T06:40:22.710Z,10.67
2018-02-25T06:42:51.906Z,10.03
2018-02-25T06:45:21.139Z,9.60
2018-02-25T06:47:50.421Z,10.73
2018-02-25T06:50:19.700Z,10.33
2018-02-25T06:52:48.900Z,9.63
2018-02-25T06:55:18.201Z,10.20
2018-02-25T06:57:47.393Z,10.53
2018-02-25T07:00:16.588Z,11.60
2018-02-25T07:02:46.036Z,10.73
2018-02-25T07:05:16.014Z,11.23
2018-02-25T07:07:45.139Z,11.03
2018-02-25T07:10:14.506Z,11.33
2018-02-25T07:12:43.905Z,11.80
2018-02-25T07:15:13.106Z,13.10
2018-02-25T07:17:42.762Z,13.30
2018-02-25T07:20:12.017Z,16.10
2018-02-25T07:22:41.319Z,12.43
2018-02-25T07:25:10.616Z,13.20
2018-02-25T07:27:39.811Z,12.43
2018-02-25T07:30:09.113Z,12.70
2018-02-25T07:32:38.408Z,15.17
2018-02-25T07:35:08.665Z,11.93
2018-02-25T07:37:37.988Z,10.97
2018-02-25T07:40:07.369Z,13.57
2018-02-25T07:42:36.673Z,13.20
2018-02-25T07:45:05.838Z,13.83
2018-02-25T07:47:35.273Z,11.63
2018-02-25T07:50:04.535Z,12.77
2018-02-25T07:52:33.837Z,15.57
2018-02-25T07:55:03.551Z,13.20
2018-02-25T07:57:32.774Z,12.97
2018-02-25T08:00:02.093Z,12.23
2018-02-25T08:02:31.342Z,11.87
2018-02-25T08:05:01.137Z,12.73
2018-02-25T08:07:30.406Z,12.93
2018-02-25T08:09:59.912Z,13.03
2018-02-25T08:12:29.194Z,13.40
2018-02-25T08:14:58.410Z,12.40
2018-02-25T08:17:27.611Z,10.93
2018-02-25T08:19:57.066Z,13.67
2018-02-25T08:22:26.365Z,13.33
2018-02-25T08:24:55.586Z,13.27
2018-02-25T08:27:24.805Z,13.23
2018-02-25T08:29:54.150Z,11.67
2018-02-25T08:32:23.357Z,14.23
2018-02-25T08:34:51.318Z,11.60
2018-02-25T08:37:19.753Z,13.43
2018-02-25T08:39:49.197Z,13.50
2018-02-25T08:42:18.054Z,14.67
2018-02-25T08:44:45.960Z,13.20
2018-02-25T08:47:16.026Z,13.80
2018-02-25T08:49:45.787Z,12.77
2018-02-25T08:52:13.892Z,14.07
2018-02-25T08:54:41.929Z,13.23
2018-02-25T08:57:09.896Z,12.03
2018-02-25T08:59:37.892Z,13.40
2018-02-25T09:02:06.502Z,12.20
2018-02-25T09:04:35.154Z,12.43
2018-02-25T09:07:03.130Z,12.37
2018-02-25T09:09:31.072Z,11.50
2018-02-25T09:11:59.448Z,12.13
2018-02-25T09:14:27.443Z,13.33
2018-02-25T09:16:55.260Z,12.40
2018-02-25T09:19:23.261Z,11.50
2018-02-25T09:21:51.327Z,12.63
2018-02-25T09:24:19.302Z,13.27
2018-02-25T09:26:47.263Z,13.83
2018-02-25T09:29:15.231Z,13.73
2018-02-25T09:31:43.161Z,13.87
2018-02-25T09:34:11.104Z,14.43
2018-02-25T09:36:39.240Z,13.60
2018-02-25T09:39:07.234Z,17.77
2018-02-25T09:41:35.110Z,13.77
2018-02-25T09:44:03.863Z,13.03
2018-02-25T09:46:31.743Z,15.30
2018-02-25T09:49:00.265Z,13.70
2018-02-25T09:51:28.136Z,14.63
2018-02-25T09:53:55.991Z,14.40
2018-02-25T09:56:24.729Z,13.90
2018-02-25T09:58:53.223Z,15.63
2018-02-25T10:01:21.280Z,13.63
2018-02-25T10:03:49.358Z,15.23
2018-02-25T10:06:17.357Z,14.43
2018-02-25T10:08:45.346Z,13.47
2018-02-25T10:11:14.210Z,15.80
2018-02-25T10:13:42.580Z,15.20
2018-02-25T10:16:10.952Z,15.20
2018-02-25T10:18:38.799Z,13.97
2018-02-25T10:21:07.013Z,14.63
2018-02-25T10:23:36.509Z,16.10
2018-02-25T10:26:04.562Z,14.40
2018-02-25T10:28:32.626Z,14.33
2018-02-25T10:31:00.912Z,14.43
2018-02-25T10:33:28.976Z,14.47
2018-02-25T10:35:57.087Z,15.33
2018-02-25T10:38:25.983Z,15.13
2018-02-25T10:40:55.554Z,15.27
2018-02-25T10:43:23.815Z,13.70
2018-02-25T10:45:52.041Z,14.97
2018-02-25T10:48:20.184Z,14.27
2018-02-25T10:50:49.178Z,16.40
2018-02-25T10:53:17.226Z,15.37
2018-02-25T10:55:45.106Z,14.70
2018-02-25T10:58:13.095Z,15.20
2018-02-25T11:00:41.296Z,15.07
2018-02-25T11:03:10.056Z,16.30
2018-02-25T11:05:37.922Z,13.97
2018-02-25T11:08:06.180Z,15.97
2018-02-25T11:10:35.083Z,16.90
2018-02-25T11:13:03.151Z,14.70
2018-02-25T11:15:31.225Z,15.17
2018-02-25T11:18:00.139Z,17.20
2018-02-25T11:20:28.222Z,15.20
2018-02-25T11:22:56.230Z,15.10
2018-02-25T11:25:24.049Z,17.47
2018-02-25T11:27:52.298Z,16.30
2018-02-25T11:30:28.102Z,15.83
2018-02-25T11:32:56.029Z,15.23
2018-02-25T11:35:24.812Z,14.97
2018-02-25T11:37:52.749Z,15.73
2018-02-25T11:40:20.643Z,15.07
2018-02-25T11:42:48.579Z,16.30
2018-02-25T11:45:16.418Z,15.17
2018-02-25T11:47:44.680Z,16.10
2018-02-25T11:50:13.432Z,15.20
2018-02-25T11:52:41.374Z,14.00
2018-02-25T11:55:10.097Z,15.87
2018-02-25T11:57:38.173Z,15.53
2018-02-25T12:00:07.130Z,15.00
2018-02-25T12:02:35.018Z,17.20
2018-02-25T12:05:02.970Z,15.10
2018-02-25T12:07:31.648Z,17.10
2018-02-25T12:09:59.559Z,14.00
2018-02-25T12:12:28.312Z,14.60
2018-02-25T12:14:59.524Z,14.10
2018-02-25T12:17:24.542Z,15.27
2018-02-25T12:19:52.616Z,15.30
2018-02-25T12:22:20.624Z,16.03
2018-02-25T12:24:49.587Z,14.30
2018-02-25T12:27:17.659Z,16.00
2018-02-25T12:29:45.836Z,14.97
2018-02-25T12:32:14.104Z,15.20
2018-02-25T12:34:42.438Z,13.90
2018-02-25T12:37:10.562Z,15.23
2018-02-25T12:39:38.827Z,13.10
2018-02-25T12:42:07.255Z,13.23
2018-02-25T12:44:35.892Z,14.90
2018-02-25T12:47:04.041Z,15.10
2018-02-25T12:49:31.992Z,14.60
2018-02-25T12:52:00.087Z,14.77
2018-02-25T12:54:28.128Z,15.20
2018-02-25T12:56:57.134Z,14.77
2018-02-25T12:59:25.313Z,14.17
2018-02-25T13:01:54.420Z,13.43
2018-02-25T13:04:22.609Z,13.60
2018-02-25T13:06:50.693Z,13.20
2018-02-25T13:09:18.658Z,13.77
2018-02-25T13:11:47.309Z,13.83
2018-02-25T13:14:16.289Z,13.30
2018-02-25T13:16:44.486Z,13.73
2018-02-25T13:19:12.677Z,13.73
2018-02-25T13:21:41.085Z,12.50
2018-02-25T13:24:09.332Z,14.30
2018-02-25T13:26:37.351Z,13.40
2018-02-25T13:29:06.193Z,13.07
2018-02-25T13:31:34.371Z,13.20
2018-02-25T13:34:02.435Z,12.47
2018-02-25T13:36:30.512Z,12.30
2018-02-25T13:38:58.687Z,14.00
2018-02-25T13:41:26.953Z,11.70
2018-02-25T13:43:55.949Z,11.70
2018-02-25T13:46:24.744Z,12.40
2018-02-25T13:48:52.924Z,11.97
2018-02-25T13:51:21.389Z,11.97
2018-02-25T13:53:49.187Z,12.93
2018-02-25T13:56:17.713Z,11.90
2018-02-25T13:58:45.912Z,13.30
2018-02-25T14:01:14.030Z,11.87
2018-02-25T14:03:42.373Z,15.33
2018-02-25T14:06:10.545Z,10.97
2018-02-25T14:08:38.520Z,15.30
2018-02-25T14:11:06.481Z,11.93
2018-02-25T14:13:34.762Z,11.60
2018-02-25T14:16:03.271Z,10.47
2018-02-25T14:18:32.017Z,11.13
2018-02-25T14:21:00.328Z,11.43
2018-02-25T14:23:29.488Z,11.00
2018-02-25T14:25:58.390Z,10.53
2018-02-25T14:28:26.498Z,11.20
2018-02-25T14:30:55.235Z,10.30
2018-02-25T14:33:23.354Z,10.50
2018-02-25T14:35:52.199Z,10.37
2018-02-25T14:38:20.302Z,10.00
2018-02-25T14:40:48.701Z,10.50
2018-02-25T14:43:17.339Z,10.50
2018-02-25T14:45:45.481Z,11.43
2018-02-25T14:48:13.659Z,10.77
2018-02-25T14:50:42.469Z,9.70
2018-02-25T14:53:10.443Z,9.77
2018-02-25T14:55:38.713Z,11.50
2018-02-25T14:58:07.119Z,9.77
2018-02-25T15:00:36.228Z,11.60
2018-02-25T15:03:05.055Z,10.97
2018-02-25T15:05:33.340Z,10.37
2018-02-25T15:08:01.324Z,9.93
2018-02-25T15:10:29.918Z,10.40
2018-02-25T15:12:57.873Z,10.23
2018-02-25T15:15:25.843Z,11.07
2018-02-25T15:17:53.992Z,9.47
2018-02-25T15:20:21.913Z,9.50
2018-02-25T15:22:49.952Z,10.93
2018-02-25T15:25:17.961Z,11.57
2018-02-25T15:27:46.101Z,15.20
2018-02-25T15:30:13.983Z,9.93
2018-02-25T15:32:42.049Z,9.20
2018-02-25T15:35:10.308Z,10.07
2018-02-25T15:37:38.282Z,9.03
2018-02-25T15:40:06.172Z,9.17
2018-02-25T15:42:34.321Z,9.37
2018-02-25T15:45:02.510Z,9.60
2018-02-25T15:47:30.665Z,8.57
2018-02-25T15:49:58.670Z,9.60
2018-02-25T15:52:27.340Z,8.03
2018-02-25T15:54:55.303Z,10.03
2018-02-25T15:57:23.071Z,7.93
2018-02-25T15:59:50.954Z,8.17
2018-02-25T16:02:19.647Z,7.60
2018-02-25T16:04:48.327Z,8.27
2018-02-25T16:07:17.279Z,8.57
2018-02-25T16:09:45.145Z,8.77
2018-02-25T16:12:13.112Z,8.10
2018-02-25T16:14:41.001Z,9.00
2018-02-25T16:17:08.953Z,8.70
2018-02-25T16:19:37.020Z,8.70
2018-02-25T16:22:06.189Z,8.37
2018-02-25T16:24:34.327Z,10.07
2018-02-25T16:27:03.332Z,7.93
2018-02-25T16:29:33.298Z,7.53
2018-02-25T16:32:02.070Z,8.40
2018-02-25T16:34:30.379Z,7.90
2018-02-25T16:36:58.436Z,7.20
2018-02-25T16:39:26.245Z,7.80
2018-02-25T16:41:55.412Z,7.50
2018-02-25T16:44:23.360Z,8.10
2018-02-25T16:46:51.249Z,7.70
2018-02-25T16:49:19.411Z,8.83
2018-02-25T16:51:47.493Z,7.07
2018-02-25T16:54:15.762Z,7.80
2018-02-25T16:56:43.822Z,7.27
2018-02-25T16:59:11.818Z,8.90
2018-02-25T17:01:39.879Z,8.77
2018-02-25T17:04:07.932Z,8.10
2018-02-25T17:06:36.049Z,8.07
2018-02-25T17:09:05.473Z,8.17
2018-02-25T17:11:47.197Z,8.10
2018-02-25T17:14:15.487Z,8.47
2018-02-25T17:16:43.550Z,11.47
2018-02-25T17:19:11.540Z,8.50
2018-02-25T17:21:39.517Z,8.70
2018-02-25T17:24:08.200Z,13.73
2018-02-25T17:26:36.171Z,7.70
2018-02-25T17:29:04.798Z,11.63
2018-02-25T17:31:32.791Z,9.93
2018-02-25T17:34:00.843Z,7.73
2018-02-25T17:36:29.011Z,9.07
2018-02-25T17:38:56.919Z,9.77
2018-02-25T17:41:24.990Z,8.30
2018-02-25T17:43:53.039Z,10.03
2018-02-25T17:46:20.932Z,11.53
2018-02-25T17:48:48.893Z,8.03
2018-02-25T17:51:16.863Z,7.53
2018-02-25T17:53:44.813Z,7.97
2018-02-25T17:56:12.731Z,8.30
2018-02-25T17:58:41.238Z,7.90
2018-02-25T18:01:09.328Z,7.23
2018-02-25T18:03:37.330Z,7.67
2018-02-25T18:06:06.097Z,8.63
2018-02-25T18:08:34.169Z,7.93
2018-02-25T18:11:03.052Z,7.70
2018-02-25T18:13:31.018Z,8.00
2018-02-25T18:15:58.910Z,8.60
2018-02-25T18:18:27.814Z,7.80
2018-02-25T18:20:56.566Z,8.53
2018-02-25T18:23:24.535Z,8.87
2018-02-25T18:25:52.434Z,8.63
2018-02-25T18:28:20.841Z,8.57
2018-02-25T18:30:48.755Z,10.43
2018-02-25T18:33:16.650Z,9.40
2018-02-25T18:35:45.226Z,8.97
2018-02-25T18:38:13.263Z,8.70
2018-02-25T18:40:41.373Z,8.70
2018-02-25T18:43:09.541Z,9.00
2018-02-25T18:45:38.870Z,7.70
2018-02-25T18:48:06.983Z,8.73
2018-02-25T18:50:36.571Z,8.67
2018-02-25T18:53:04.763Z,8.23
2018-02-25T18:55:33.552Z,9.50
2018-02-25T18:58:01.624Z,8.57
2018-02-25T19:00:30.252Z,8.77
2018-02-25T19:02:59.773Z,8.10
2018-02-25T19:05:27.797Z,9.83
2018-02-25T19:07:55.751Z,8.10
2018-02-25T19:10:23.925Z,8.00
2018-02-25T19:12:51.999Z,9.00
2018-02-25T19:15:21.920Z,8.80
2018-02-25T19:17:49.966Z,8.57
2018-02-25T19:20:18.643Z,9.10
2018-02-25T19:22:46.568Z,8.77
2018-02-25T19:25:15.479Z,8.87
2018-02-25T19:27:44.141Z,8.60
2018-02-25T19:30:13.300Z,8.57
2018-02-25T19:32:41.477Z,7.43
2018-02-25T19:35:09.306Z,8.53
2018-02-25T19:37:42.907Z,8.80
2018-02-25T19:40:10.959Z,9.50
2018-02-25T19:42:39.705Z,9.60
2018-02-25T19:45:08.793Z,8.57
2018-02-25T19:47:36.901Z,8.70
2018-02-25T19:50:05.655Z,7.83
2018-02-25T19:52:34.033Z,7.80
2018-02-25T19:55:03.290Z,9.23
2018-02-25T19:57:31.828Z,8.03
2018-02-25T20:00:00.516Z,9.10
2018-02-25T20:02:28.516Z,8.73
2018-02-25T20:04:57.101Z,9.07
2018-02-25T20:07:25.954Z,9.40
2018-02-25T20:09:54.009Z,8.93
2018-02-25T20:12:21.981Z,9.30
2018-02-25T20:14:49.900Z,10.23
2018-02-25T20:17:17.894Z,9.03
2018-02-25T20:19:47.346Z,8.50
2018-02-25T20:22:16.200Z,9.50
2018-02-25T20:24:44.646Z,8.90
2018-02-25T20:27:13.794Z,9.00
2018-02-25T20:29:41.855Z,8.67
2018-02-25T20:32:10.262Z,8.80
2018-02-25T20:34:38.373Z,8.33
2018-02-25T20:37:06.373Z,8.30
2018-02-25T20:39:34.549Z,8.33
2018-02-25T20:42:02.627Z,8.53
2018-02-25T20:44:30.775Z,8.87
2018-02-25T20:46:58.958Z,8.90
2018-02-25T20:49:27.062Z,9.40
2018-02-25T20:51:55.012Z,9.83
2018-02-25T20:54:23.074Z,9.40
2018-02-25T20:56:51.919Z,8.77
2018-02-25T20:59:19.888Z,8.50
2018-02-25T21:01:48.422Z,9.37
2018-02-25T21:04:16.406Z,9.07
2018-02-25T21:06:45.110Z,7.40
2018-02-25T21:09:13.926Z,7.97
2018-02-25T21:11:42.271Z,9.20
2018-02-25T21:14:11.152Z,9.37
2018-02-25T21:16:39.831Z,9.10
2018-02-25T21:19:08.561Z,8.97
2018-02-25T21:21:36.674Z,8.67
2018-02-25T21:24:04.768Z,9.37
2018-02-25T21:26:32.929Z,7.50
2018-02-25T21:29:01.299Z,10.20
2018-02-25T21:31:29.298Z,17.13
2018-02-25T21:33:58.264Z,11.20
2018-02-25T21:36:26.344Z,8.57
2018-02-25T21:38:54.906Z,8.83
2018-02-25T21:41:22.919Z,9.87
2018-02-25T21:43:52.138Z,9.17
2018-02-25T21:46:21.084Z,8.23
2018-02-25T21:48:49.242Z,9.93
2018-02-25T21:51:17.559Z,9.27
2018-02-25T21:53:46.410Z,9.70
2018-02-25T21:56:31.216Z,9.03
2018-02-25T21:59:05.720Z,9.87
2018-02-25T22:01:39.157Z,9.17
2018-02-25T22:04:07.055Z,8.97
2018-02-25T22:06:34.950Z,9.90
2018-02-25T22:09:03.534Z,9.27
2018-02-25T22:11:31.584Z,9.80
2018-02-25T22:13:59.746Z,11.27
2018-02-25T22:16:27.722Z,9.00
2018-02-25T22:18:55.600Z,9.00
2018-02-25T22:21:23.653Z,9.87
2018-02-25T22:23:51.623Z,10.13
2018-02-25T22:26:19.584Z,10.43
2018-02-25T22:28:47.559Z,10.27
2018-02-25T22:31:15.533Z,12.33
2018-02-25T22:33:43.543Z,11.07
2018-02-25T22:36:12.281Z,10.50
2018-02-25T22:38:40.288Z,12.70
2018-02-25T22:41:08.423Z,11.77
2018-02-25T22:43:36.530Z,11.67
2018-02-25T22:46:04.340Z,11.90
2018-02-25T22:48:32.542Z,10.20
2018-02-25T22:51:01.322Z,9.00
2018-02-25T22:53:29.212Z,9.17
2018-02-25T22:55:57.165Z,9.77
2018-02-25T22:58:25.642Z,8.63
2018-02-25T23:00:54.430Z,9.57
2018-02-25T23:03:22.608Z,9.23
2018-02-25T23:05:50.500Z,10.20
2018-02-25T23:08:18.535Z,9.37
2018-02-25T23:10:47.063Z,9.80
2018-02-25T23:13:16.773Z,11.90
2018-02-25T23:15:45.963Z,15.23
2018-02-25T23:18:14.545Z,9.83
2018-02-25T23:20:42.612Z,10.77
2018-02-25T23:23:11.093Z,10.03
2018-02-25T23:25:38.945Z,9.90
2018-02-25T23:28:06.826Z,9.63
2018-02-25T23:30:35.579Z,10.10
2018-02-25T23:33:03.444Z,12.77
2018-02-25T23:35:31.330Z,11.10
2018-02-25T23:37:59.642Z,10.43
2018-02-25T23:40:28.907Z,10.10
2018-02-25T23:42:56.758Z,10.07
2018-02-25T23:45:24.724Z,11.23
2018-02-25T23:47:52.808Z,10.27
2018-02-25T23:50:20.657Z,11.07
2018-02-25T23:52:49.370Z,12.17
2018-02-25T23:55:17.421Z,12.10
2018-02-25T23:57:45.382Z,10.30
